createdAt,value
2022-12-09T00:01:24.869Z,94609.41
2022-12-09T00:03:53.732Z,94615.53
2022-12-09T00:06:23.929Z,94610.69
2022-12-09T00:08:53.060Z,94609.41
2022-12-09T00:11:21.977Z,94591.97
2022-12-09T00:13:50.955Z,94611.66
2022-12-09T00:16:21.003Z,94607.91
2022-12-09T00:18:50.061Z,94602.34
2022-12-09T00:21:21.807Z,94599.94
2022-12-09T00:23:51.247Z,94563.16
2022-12-09T00:26:20.601Z,94524.09
2022-12-09T00:28:50.444Z,94603.97
2022-12-09T00:31:21.948Z,94603.69
2022-12-09T00:33:50.804Z,94538.72
2022-12-09T00:36:21.789Z,94605.88
2022-12-09T00:38:50.605Z,94604.03
2022-12-09T00:41:20.246Z,94602.19
2022-12-09T00:43:48.965Z,94582.88
2022-12-09T00:46:18.931Z,94599.25
2022-12-09T00:48:49.025Z,94602.72
2022-12-09T00:51:20.487Z,94605.16
2022-12-09T00:53:50.453Z,94598.50
2022-12-09T00:56:18.942Z,94600.56
2022-12-09T00:58:47.695Z,94616.50
2022-12-09T01:01:16.343Z,94598.66
2022-12-09T01:03:45.017Z,94593.84
2022-12-09T01:06:19.767Z,94598.56
2022-12-09T01:08:48.737Z,94600.72
2022-12-09T01:11:20.718Z,94601.84
2022-12-09T01:13:50.118Z,94594.22
2022-12-09T01:16:19.945Z,94592.28
2022-12-09T01:18:49.251Z,94604.63
2022-12-09T01:21:19.795Z,94593.78
2022-12-09T01:23:49.432Z,94576.06
2022-12-09T01:26:17.989Z,94590.25
2022-12-09T01:28:46.793Z,94594.75
2022-12-09T01:31:17.848Z,94591.78
2022-12-09T01:33:46.953Z,94593.88
2022-12-09T01:36:19.717Z,94596.53
2022-12-09T01:38:48.730Z,94599.19
2022-12-09T01:41:18.753Z,94595.25
2022-12-09T01:43:47.256Z,94600.88
2022-12-09T01:46:15.791Z,94597.41
2022-12-09T01:48:47.927Z,94586.56
2022-12-09T01:51:21.476Z,94586.84
2022-12-09T01:53:51.911Z,94574.00
2022-12-09T01:56:24.213Z,94575.13
2022-12-09T01:58:55.497Z,94581.75
2022-12-09T02:01:23.873Z,94534.34
2022-12-09T02:03:52.634Z,94579.31
2022-12-09T02:06:22.792Z,94585.13
2022-12-09T02:08:52.438Z,94555.63
2022-12-09T02:11:32.673Z,94580.88
2022-12-09T02:14:06.315Z,94462.53
2022-12-09T02:16:37.958Z,94574.59
2022-12-09T02:19:17.050Z,94570.75
2022-12-09T02:21:53.205Z,94566.47
2022-12-09T02:24:28.657Z,94573.41
2022-12-09T02:27:02.317Z,94563.56
2022-12-09T02:29:45.831Z,94567.94
2022-12-09T02:32:40.187Z,94566.16
2022-12-09T02:35:15.691Z,94558.44
2022-12-09T02:37:51.623Z,94549.97
2022-12-09T02:40:24.519Z,94553.13
2022-12-09T02:42:53.830Z,94553.63
2022-12-09T02:45:24.538Z,94553.94
2022-12-09T02:47:55.393Z,94553.13
2022-12-09T02:50:29.054Z,94549.41
2022-12-09T02:53:02.056Z,94524.69
2022-12-09T02:55:33.917Z,94532.16
2022-12-09T02:58:03.276Z,94550.16
2022-12-09T03:00:31.738Z,94552.31
2022-12-09T03:03:03.747Z,94558.94
2022-12-09T03:05:42.918Z,94532.16
2022-12-09T03:08:19.210Z,94542.53
2022-12-09T03:10:56.643Z,94542.72
2022-12-09T03:13:39.945Z,94541.03
2022-12-09T03:16:13.952Z,94551.56
2022-12-09T03:18:47.231Z,94535.03
2022-12-09T03:21:22.581Z,94491.00
2022-12-09T03:23:55.643Z,94531.88
2022-12-09T03:26:26.468Z,94529.41
2022-12-09T03:28:57.331Z,94531.97
2022-12-09T03:31:30.351Z,94527.16
2022-12-09T03:34:05.248Z,94527.63
2022-12-09T03:36:39.111Z,94520.41
2022-12-09T03:39:13.709Z,94523.53
2022-12-09T03:41:46.963Z,94515.75
2022-12-09T03:44:21.367Z,94520.41
2022-12-09T03:46:50.578Z,94513.41
2022-12-09T03:49:19.750Z,94511.25
2022-12-09T03:51:55.587Z,94511.53
2022-12-09T03:54:28.936Z,94515.34
2022-12-09T03:56:59.570Z,94506.72
2022-12-09T03:59:32.907Z,94448.69
2022-12-09T04:02:01.459Z,94509.44
2022-12-09T04:04:30.472Z,94499.44
2022-12-09T04:07:01.048Z,94504.59
2022-12-09T04:09:29.816Z,94499.56
2022-12-09T04:11:58.624Z,94509.50
2022-12-09T04:14:27.132Z,94507.78
2022-12-09T04:16:55.613Z,94504.06
2022-12-09T04:19:24.472Z,94500.13
2022-12-09T04:21:52.934Z,94499.91
2022-12-09T04:24:23.302Z,94442.63
2022-12-09T04:26:51.594Z,94506.56
2022-12-09T04:29:19.993Z,94501.59
2022-12-09T04:31:48.832Z,94504.81
2022-12-09T04:34:17.514Z,94504.34
2022-12-09T04:36:46.192Z,94498.06
2022-12-09T04:39:15.098Z,94460.31
2022-12-09T04:41:44.849Z,94504.34
2022-12-09T04:44:13.549Z,94507.47
2022-12-09T04:46:42.068Z,94505.84
2022-12-09T04:49:11.359Z,94472.97
2022-12-09T04:51:40.467Z,94511.72
2022-12-09T04:54:09.575Z,94511.47
2022-12-09T04:56:38.256Z,94511.47
2022-12-09T04:59:08.608Z,94512.28
2022-12-09T05:01:37.378Z,94508.50
2022-12-09T05:04:06.637Z,94512.84
2022-12-09T05:06:35.294Z,94520.78
2022-12-09T05:09:04.352Z,94516.41
2022-12-09T05:11:33.097Z,94518.66
2022-12-09T05:14:01.827Z,94518.00
2022-12-09T05:16:31.817Z,94502.09
2022-12-09T05:19:02.357Z,94510.50
2022-12-09T05:21:31.369Z,94504.66
2022-12-09T05:23:59.761Z,94462.06
2022-12-09T05:26:28.902Z,94512.13
2022-12-09T05:28:57.427Z,94493.72
2022-12-09T05:31:26.818Z,94515.41
2022-12-09T05:33:57.140Z,94501.19
2022-12-09T05:36:27.775Z,94491.56
2022-12-09T05:38:57.210Z,94502.09
2022-12-09T05:41:26.087Z,94492.91
2022-12-09T05:43:55.046Z,94485.72
2022-12-09T05:46:23.829Z,94478.22
2022-12-09T05:48:53.119Z,94501.44
2022-12-09T05:51:27.077Z,94500.66
2022-12-09T05:53:56.744Z,94498.72
2022-12-09T05:56:26.920Z,94498.41
2022-12-09T05:58:56.553Z,94497.84
2022-12-09T06:01:27.174Z,94487.28
2022-12-09T06:03:56.665Z,94489.63
2022-12-09T06:06:30.933Z,94501.28
2022-12-09T06:09:01.989Z,94491.81
2022-12-09T06:11:30.917Z,94499.50
2022-12-09T06:13:59.558Z,94500.78
2022-12-09T06:16:28.173Z,94493.72
2022-12-09T06:18:57.069Z,94494.75
2022-12-09T06:21:27.369Z,94475.59
2022-12-09T06:23:56.210Z,94492.78
2022-12-09T06:26:26.977Z,94475.72
2022-12-09T06:28:56.749Z,94490.94
2022-12-09T06:31:25.894Z,94496.94
2022-12-09T06:33:57.287Z,94492.91
2022-12-09T06:36:29.370Z,94486.50
2022-12-09T06:39:04.520Z,94492.59
2022-12-09T06:41:38.109Z,94500.78
2022-12-09T06:44:07.382Z,94495.13
2022-12-09T06:46:36.902Z,94484.81
2022-12-09T06:49:05.574Z,94481.34
2022-12-09T06:51:35.780Z,94491.41
2022-12-09T06:54:04.529Z,94481.34
2022-12-09T06:56:33.467Z,94474.13
2022-12-09T06:59:02.089Z,94490.34
2022-12-09T07:01:30.827Z,94483.69
2022-12-09T07:03:59.519Z,94480.16
2022-12-09T07:06:30.889Z,94479.81
2022-12-09T07:09:03.141Z,94481.09
2022-12-09T07:11:31.958Z,94435.38
2022-12-09T07:14:01.421Z,94479.59
2022-12-09T07:16:30.309Z,94494.44
2022-12-09T07:18:59.343Z,94487.06
2022-12-09T07:21:28.485Z,94488.44
2022-12-09T07:24:00.781Z,94492.66
2022-12-09T07:26:32.663Z,94491.63
2022-12-09T07:29:03.872Z,94490.34
2022-12-09T07:31:32.933Z,94488.28
2022-12-09T07:34:02.226Z,94485.38
2022-12-09T07:36:33.633Z,94485.94
2022-12-09T07:39:05.464Z,94482.00
2022-12-09T07:41:36.256Z,94484.41
2022-12-09T07:44:05.503Z,94492.38
2022-12-09T07:46:34.215Z,94483.59
2022-12-09T07:49:04.842Z,94489.88
2022-12-09T07:51:34.166Z,94493.72
2022-12-09T07:54:03.435Z,94496.38
2022-12-09T07:56:32.924Z,94499.59
2022-12-09T07:59:02.813Z,94498.06
2022-12-09T08:01:32.346Z,94495.09
2022-12-09T08:04:01.740Z,94505.13
2022-12-09T08:06:32.305Z,94500.66
2022-12-09T08:09:01.872Z,94507.53
2022-12-09T08:11:33.061Z,94463.22
2022-12-09T08:14:11.061Z,94495.41
2022-12-09T08:16:42.049Z,94496.78
2022-12-09T08:19:11.225Z,94487.94
2022-12-09T08:21:39.847Z,94496.56
2022-12-09T08:24:09.502Z,94497.03
2022-12-09T08:26:40.215Z,94477.69
2022-12-09T08:29:12.309Z,94482.56
2022-12-09T08:31:43.955Z,94491.41
2022-12-09T08:34:13.318Z,94491.16
2022-12-09T08:36:42.692Z,94416.44
2022-12-09T08:39:12.609Z,94466.00
2022-12-09T08:41:41.888Z,94471.47
2022-12-09T08:44:13.115Z,94487.47
2022-12-09T08:46:43.799Z,94487.41
2022-12-09T08:49:14.301Z,94448.44
2022-12-09T08:51:42.832Z,94487.53
2022-12-09T08:54:11.430Z,94482.72
2022-12-09T08:56:40.360Z,94487.53
2022-12-09T08:59:09.029Z,94490.44
2022-12-09T09:01:39.278Z,94453.56
2022-12-09T09:04:11.508Z,94476.78
2022-12-09T09:06:42.651Z,94470.28
2022-12-09T09:09:13.407Z,94471.44
2022-12-09T09:11:43.114Z,94470.41
2022-12-09T09:14:13.332Z,94444.41
2022-12-09T09:16:45.289Z,94474.69
2022-12-09T09:19:18.485Z,94473.06
2022-12-09T09:21:47.977Z,94468.81
2022-12-09T09:24:19.790Z,94467.78
2022-12-09T09:26:49.317Z,94475.78
2022-12-09T09:29:19.765Z,94461.81
2022-12-09T09:31:54.480Z,94453.16
2022-12-09T09:34:24.125Z,94433.97
2022-12-09T09:36:52.912Z,94439.28
2022-12-09T09:39:22.386Z,94458.53
2022-12-09T09:41:54.442Z,94448.56
2022-12-09T09:44:29.616Z,94462.88
2022-12-09T09:47:01.264Z,94441.34
2022-12-09T09:49:37.626Z,94446.00
2022-12-09T09:52:09.794Z,94451.31
2022-12-09T09:54:39.316Z,94444.88
2022-12-09T09:57:14.972Z,94435.22
2022-12-09T09:59:54.057Z,94437.94
2022-12-09T10:02:39.649Z,94429.50
2022-12-09T10:05:15.739Z,94383.44
2022-12-09T10:07:48.906Z,94417.75
2022-12-09T10:10:30.510Z,94423.31
2022-12-09T10:13:17.869Z,94405.16
2022-12-09T10:16:00.682Z,94330.56
2022-12-09T10:18:38.731Z,94416.72
2022-12-09T10:21:17.349Z,94415.44
2022-12-09T10:23:47.925Z,94412.91
2022-12-09T10:26:22.894Z,94385.56
2022-12-09T10:28:59.343Z,94379.75
2022-12-09T10:31:30.493Z,94406.06
2022-12-09T10:34:01.138Z,94412.00
2022-12-09T10:36:35.783Z,94410.50
2022-12-09T10:39:06.821Z,94370.88
2022-12-09T10:42:03.185Z,94385.00
2022-12-09T10:44:32.729Z,94399.28
2022-12-09T10:47:05.281Z,94401.97
2022-12-09T10:49:37.040Z,94391.56
2022-12-09T10:52:07.868Z,94393.97
2022-12-09T10:54:39.369Z,94377.78
2022-12-09T10:57:24.533Z,94350.97
2022-12-09T11:00:02.859Z,94415.06
2022-12-09T11:02:32.861Z,94367.97
2022-12-09T11:05:24.503Z,94403.34
2022-12-09T11:07:56.210Z,94403.09
2022-12-09T11:10:27.015Z,94404.53
2022-12-09T11:13:03.090Z,94400.41
2022-12-09T11:15:36.728Z,94399.75
2022-12-09T11:18:06.303Z,94397.28
2022-12-09T11:20:37.739Z,94395.44
2022-12-09T11:23:15.259Z,94409.56
2022-12-09T11:25:54.695Z,94402.19
2022-12-09T11:28:29.478Z,94365.53
2022-12-09T11:33:52.548Z,94389.19
2022-12-09T11:36:29.834Z,94382.06
2022-12-09T11:39:12.084Z,94393.34
2022-12-09T11:42:06.187Z,94390.47
2022-12-09T11:44:37.590Z,94392.47
2022-12-09T11:47:09.568Z,94394.38
2022-12-09T11:49:48.915Z,94393.84
2022-12-09T11:52:32.505Z,94395.38
2022-12-09T11:55:20.208Z,94393.78
2022-12-09T11:57:52.631Z,94391.50
2022-12-09T12:00:24.629Z,94391.53
2022-12-09T12:03:00.110Z,94392.53
2022-12-09T12:05:35.421Z,94388.78
2022-12-09T12:08:16.507Z,94387.72
2022-12-09T12:10:48.453Z,94389.44
2022-12-09T12:13:22.426Z,94390.75
2022-12-09T12:15:57.113Z,94384.47
2022-12-09T12:18:28.502Z,94390.38
2022-12-09T12:21:43.107Z,94387.31
2022-12-09T12:24:26.286Z,94383.75
2022-12-09T12:27:05.383Z,94382.91
2022-12-09T12:29:46.140Z,94386.06
2022-12-09T12:32:28.887Z,94377.25
2022-12-09T12:35:12.154Z,94382.91
2022-12-09T12:37:50.998Z,94381.25
2022-12-09T12:40:33.757Z,94372.28
2022-12-09T12:43:30.363Z,94360.28
2022-12-09T12:46:20.988Z,94331.78
2022-12-09T12:49:33.679Z,94370.06
2022-12-09T12:52:26.375Z,94352.25
2022-12-09T12:55:06.930Z,94355.94
2022-12-09T12:57:46.272Z,94361.56
2022-12-09T13:00:19.196Z,94362.31
2022-12-09T13:02:59.292Z,94359.47
2022-12-09T13:05:36.912Z,94364.00
2022-12-09T13:08:11.068Z,94336.63
2022-12-09T13:10:42.370Z,94353.72
2022-12-09T13:13:20.426Z,94319.44
2022-12-09T13:15:51.904Z,94353.91
2022-12-09T13:18:26.832Z,94344.81
2022-12-09T13:20:57.418Z,94356.06
2022-12-09T13:23:38.541Z,94357.47
2022-12-09T13:26:21.163Z,94332.97
2022-12-09T13:28:58.532Z,94354.94
2022-12-09T13:31:30.803Z,94351.84
2022-12-09T13:34:18.453Z,94363.09
2022-12-09T13:36:48.325Z,94345.03
2022-12-09T13:39:55.804Z,94340.44
2022-12-09T13:42:57.495Z,94341.06
2022-12-09T13:45:37.356Z,94334.47
2022-12-09T13:48:28.328Z,94343.41
2022-12-09T13:50:59.730Z,94340.69
2022-12-09T13:53:32.786Z,94315.09
2022-12-09T13:56:04.027Z,94343.00
2022-12-09T13:59:17.075Z,94304.69
2022-12-09T14:01:51.977Z,94342.50
2022-12-09T14:04:25.642Z,94337.56
2022-12-09T14:06:58.593Z,94335.94
2022-12-09T14:09:35.031Z,94296.78
2022-12-09T14:12:06.573Z,94336.25
2022-12-09T14:14:59.708Z,94330.72
2022-12-09T14:18:04.774Z,94329.34
2022-12-09T14:20:39.369Z,94328.84
2022-12-09T14:23:18.588Z,94289.41
2022-12-09T14:26:05.942Z,94327.59
2022-12-09T14:28:56.456Z,94305.31
2022-12-09T14:32:00.313Z,94336.53
2022-12-09T14:34:37.075Z,94334.28
2022-12-09T14:37:30.078Z,94339.50
2022-12-09T14:40:05.115Z,94328.47
2022-12-09T14:42:44.899Z,94344.22
2022-12-09T14:45:25.942Z,94345.25
2022-12-09T14:47:54.600Z,94347.69
2022-12-09T14:50:25.768Z,94342.88
2022-12-09T14:52:57.766Z,94345.56
2022-12-09T14:55:27.867Z,94344.47
2022-12-09T14:57:59.476Z,94343.50
2022-12-09T15:00:32.350Z,94334.59
2022-12-09T15:03:31.386Z,94339.19
2022-12-09T15:06:00.482Z,94315.72
2022-12-09T15:08:30.908Z,94329.84
2022-12-09T15:11:00.585Z,94344.06
2022-12-09T15:13:29.483Z,94343.28
2022-12-09T15:15:58.424Z,94336.69
2022-12-09T15:18:28.829Z,94328.38
2022-12-09T15:21:01.441Z,94305.00
2022-12-09T15:23:34.714Z,94334.00
2022-12-09T15:26:06.487Z,94341.50
2022-12-09T15:28:36.086Z,94337.31
2022-12-09T15:31:07.887Z,94337.81
2022-12-09T15:33:41.422Z,94344.06
2022-12-09T15:36:15.067Z,94339.28
2022-12-09T15:38:47.680Z,94339.66
2022-12-09T15:41:34.178Z,94320.91
2022-12-09T15:44:08.744Z,94317.13
2022-12-09T15:46:40.813Z,94342.13
2022-12-09T15:49:13.999Z,94339.47
2022-12-09T15:51:46.996Z,94351.84
2022-12-09T15:54:20.357Z,94346.06
2022-12-09T15:56:56.234Z,94275.44
2022-12-09T15:59:30.593Z,94348.16
2022-12-09T16:02:00.818Z,94344.97
2022-12-09T16:04:31.886Z,94343.34
2022-12-09T16:07:08.151Z,94321.38
2022-12-09T16:09:37.510Z,94345.75
2022-12-09T16:12:25.286Z,94336.31
2022-12-09T16:14:53.742Z,94341.44
2022-12-09T16:17:24.220Z,94342.72
2022-12-09T16:19:52.828Z,94349.31
2022-12-09T16:22:26.671Z,94353.81
2022-12-09T16:25:17.584Z,94356.31
2022-12-09T16:27:48.816Z,94329.06
2022-12-09T16:30:20.269Z,94347.94
2022-12-09T16:32:49.790Z,94335.50
2022-12-09T16:35:23.877Z,94350.66
2022-12-09T16:38:20.017Z,94346.91
2022-12-09T16:41:09.964Z,94351.78
2022-12-09T16:43:54.121Z,94344.38
2022-12-09T16:46:41.272Z,94343.84
2022-12-09T16:49:10.225Z,94353.31
2022-12-09T16:51:39.770Z,94357.00
2022-12-09T16:54:20.137Z,94299.72
2022-12-09T16:56:49.013Z,94358.50
2022-12-09T16:59:17.368Z,94355.84
2022-12-09T17:01:45.812Z,94345.75
2022-12-09T17:04:16.207Z,94333.19
2022-12-09T17:06:44.983Z,94352.13
2022-12-09T17:09:15.095Z,94349.41
2022-12-09T17:11:48.591Z,94348.59
2022-12-09T17:14:17.761Z,94349.94
2022-12-09T17:16:46.482Z,94338.53
2022-12-09T17:19:15.944Z,94342.38
2022-12-09T17:21:44.504Z,94339.09
2022-12-09T17:24:14.329Z,94341.75
2022-12-09T17:26:42.896Z,94347.78
2022-12-09T17:29:11.626Z,94331.50
2022-12-09T17:31:39.936Z,94347.03
2022-12-09T17:34:08.724Z,94332.06
2022-12-09T17:36:44.890Z,94357.97
2022-12-09T17:39:16.843Z,94321.38
2022-12-09T17:41:45.291Z,94359.09
2022-12-09T17:44:13.641Z,94362.06
2022-12-09T17:46:42.435Z,94363.16
2022-12-09T17:49:10.821Z,94362.44
2022-12-09T17:51:39.309Z,94365.16
2022-12-09T17:54:08.052Z,94365.88
2022-12-09T17:56:38.733Z,94373.47
2022-12-09T17:59:09.342Z,94323.81
2022-12-09T18:01:38.720Z,94370.56
2022-12-09T18:04:10.726Z,94350.53
2022-12-09T18:06:41.573Z,94365.94
2022-12-09T18:09:11.602Z,94383.59
2022-12-09T18:11:42.143Z,94370.94
2022-12-09T18:14:12.186Z,94385.44
2022-12-09T18:16:41.291Z,94348.31
2022-12-09T18:19:15.205Z,94384.91
2022-12-09T18:21:44.167Z,94382.56
2022-12-09T18:24:12.647Z,94381.13
2022-12-09T18:26:42.684Z,94332.91
2022-12-09T18:29:12.265Z,94382.91
2022-12-09T18:31:41.617Z,94345.94
2022-12-09T18:34:10.080Z,94337.41
2022-12-09T18:36:38.541Z,94352.91
2022-12-09T18:39:07.632Z,94390.84
2022-12-09T18:41:37.352Z,94303.25
2022-12-09T18:44:08.593Z,94385.06
2022-12-09T18:46:38.806Z,94382.19
2022-12-09T18:49:10.424Z,94383.44
2022-12-09T18:51:39.975Z,94383.94
2022-12-09T18:54:09.392Z,94384.84
2022-12-09T18:56:38.616Z,94387.78
2022-12-09T18:59:09.742Z,94372.25
2022-12-09T19:01:40.791Z,94389.50
2022-12-09T19:04:14.148Z,94387.66
2022-12-09T19:06:45.330Z,94375.81
2022-12-09T19:09:16.830Z,94384.31
2022-12-09T19:11:46.649Z,94384.91
2022-12-09T19:14:17.925Z,94380.41
2022-12-09T19:16:46.753Z,94382.03
2022-12-09T19:19:17.432Z,94350.19
2022-12-09T19:21:46.718Z,94383.81
2022-12-09T19:24:17.323Z,94387.50
2022-12-09T19:26:46.016Z,94384.38
2022-12-09T19:29:17.966Z,94392.66
2022-12-09T19:31:48.028Z,94382.84
2022-12-09T19:34:19.513Z,94373.22
2022-12-09T19:36:49.873Z,94398.88
2022-12-09T19:39:20.555Z,94357.25
2022-12-09T19:41:50.346Z,94383.44
2022-12-09T19:44:44.183Z,94393.41
2022-12-09T19:47:11.718Z,94397.34
2022-12-09T19:49:41.955Z,94378.16
2022-12-09T19:52:10.761Z,94398.16
2022-12-09T19:54:39.629Z,94382.09
2022-12-09T19:57:08.036Z,94403.28
2022-12-09T19:59:38.084Z,94379.00
2022-12-09T20:02:12.140Z,94329.06
2022-12-09T20:04:50.174Z,94401.72
2022-12-09T20:07:20.191Z,94400.38
2022-12-09T20:09:49.545Z,94385.38
2022-12-09T20:12:18.370Z,94397.41
2022-12-09T20:14:48.748Z,94370.81
2022-12-09T20:17:18.199Z,94400.19
2022-12-09T20:19:46.863Z,94397.22
2022-12-09T20:22:15.322Z,94401.25
2022-12-09T20:24:44.416Z,94396.47
2022-12-09T20:27:12.969Z,94397.28
2022-12-09T20:29:41.399Z,94401.78
2022-12-09T20:32:11.493Z,94401.06
2022-12-09T20:34:40.012Z,94402.84
2022-12-09T20:37:10.673Z,94390.53
2022-12-09T20:39:39.513Z,94399.13
2022-12-09T20:42:08.073Z,94401.25
2022-12-09T20:44:38.150Z,94406.97
2022-12-09T20:47:06.557Z,94414.94
2022-12-09T20:49:36.774Z,94419.75
2022-12-09T20:52:06.069Z,94410.19
2022-12-09T20:54:34.853Z,94413.97
2022-12-09T20:57:03.586Z,94408.16
2022-12-09T20:59:32.029Z,94406.44
2022-12-09T21:02:01.856Z,94411.31
2022-12-09T21:04:30.655Z,94406.31
2022-12-09T21:07:00.919Z,94417.16
2022-12-09T21:09:30.501Z,94418.50
2022-12-09T21:12:00.588Z,94425.66
2022-12-09T21:14:33.146Z,94420.94
2022-12-09T21:17:02.244Z,94425.13
2022-12-09T21:19:32.495Z,94419.25
2022-12-09T21:22:02.573Z,94422.47
2022-12-09T21:24:31.456Z,94423.44
2022-12-09T21:27:01.092Z,94388.69
2022-12-09T21:29:32.222Z,94435.78
2022-12-09T21:32:02.102Z,94432.03
2022-12-09T21:34:30.524Z,94434.38
2022-12-09T21:36:59.427Z,94434.38
2022-12-09T21:39:30.325Z,94439.94
2022-12-09T21:41:58.799Z,94440.97
2022-12-09T21:44:27.674Z,94385.59
2022-12-09T21:46:56.091Z,94442.59
2022-12-09T21:49:24.611Z,94446.81
2022-12-09T21:51:53.586Z,94442.09
2022-12-09T21:54:21.974Z,94444.19
2022-12-09T21:56:51.810Z,94444.75
2022-12-09T21:59:20.232Z,94444.19
2022-12-09T22:01:48.622Z,94446.34
2022-12-09T22:04:18.086Z,94448.19
2022-12-09T22:06:48.124Z,94384.47
2022-12-09T22:09:17.669Z,94434.38
2022-12-09T22:11:46.019Z,94416.41
2022-12-09T22:14:16.142Z,94438.38
2022-12-09T22:16:46.009Z,94442.09
2022-12-09T22:19:17.599Z,94434.38
2022-12-09T22:21:46.547Z,94445.78
2022-12-09T22:24:16.078Z,94442.09
2022-12-09T22:26:45.319Z,94451.91
2022-12-09T22:29:16.692Z,94454.31
2022-12-09T22:31:45.716Z,94414.25
2022-12-09T22:34:16.219Z,94442.59
2022-12-09T22:36:44.717Z,94410.94
2022-12-09T22:39:14.692Z,94453.31
2022-12-09T22:41:43.926Z,94448.50
2022-12-09T22:44:13.965Z,94438.88
2022-12-09T22:46:43.981Z,94458.88
2022-12-09T22:49:14.533Z,94453.81
2022-12-09T22:51:43.489Z,94446.88
2022-12-09T22:54:12.891Z,94459.28
2022-12-09T22:56:43.450Z,94459.53
2022-12-09T22:59:13.159Z,94466.47
2022-12-09T23:01:41.957Z,94458.50
2022-12-09T23:04:13.054Z,94459.38
2022-12-09T23:06:42.293Z,94465.22
2022-12-09T23:09:15.891Z,94459.13
2022-12-09T23:11:44.229Z,94464.09
2022-12-09T23:14:13.321Z,94462.53
2022-12-09T23:16:41.986Z,94458.78
2022-12-09T23:19:13.387Z,94463.88
2022-12-09T23:21:43.282Z,94459.59
2022-12-09T23:24:13.984Z,94460.16
2022-12-09T23:26:43.519Z,94429.19
2022-12-09T23:29:15.659Z,94459.44
2022-12-09T23:31:44.707Z,94452.78
2022-12-09T23:34:15.710Z,94457.00
2022-12-09T23:36:45.891Z,94469.78
2022-12-09T23:39:16.109Z,94466.09
2022-12-09T23:41:46.440Z,94398.50
2022-12-09T23:44:17.065Z,94360.50
2022-12-09T23:46:46.124Z,94468.81
2022-12-09T23:49:16.654Z,94450.13
2022-12-09T23:51:45.815Z,94475.09
2022-12-09T23:54:16.135Z,94473.75
2022-12-09T23:56:50.007Z,94465.78
2022-12-09T23:59:20.534Z,94465.28
